createdAt,value
2023-01-30T00:01:37.781Z,3.06
2023-01-30T00:06:45.301Z,3.06
2023-01-30T00:11:52.653Z,3.06
2023-01-30T00:17:00.284Z,3.05
2023-01-30T00:22:07.574Z,3.05
2023-01-30T00:27:14.851Z,3.05
2023-01-30T00:32:22.078Z,3.04
2023-01-30T00:37:29.563Z,3.04
2023-01-30T00:42:54.206Z,3.04
2023-01-30T00:48:02.042Z,3.04
2023-01-30T00:53:09.290Z,3.03
2023-01-30T00:58:16.568Z,3.02
2023-01-30T01:03:23.937Z,3.00
2023-01-30T01:08:31.350Z,3.01
2023-01-30T01:13:38.723Z,3.02
2023-01-30T01:18:46.045Z,3.01
2023-01-30T01:23:54.274Z,3.00
2023-01-30T01:29:01.937Z,3.00
2023-01-30T01:34:09.296Z,2.99
2023-01-30T01:39:16.884Z,2.98
2023-01-30T01:44:26.795Z,2.98
2023-01-30T01:49:35.764Z,2.98
2023-01-30T01:54:46.532Z,2.99
2023-01-30T01:59:55.063Z,2.98
2023-01-30T02:05:07.088Z,2.98
2023-01-30T02:10:17.803Z,2.99
2023-01-30T02:15:25.123Z,2.98
2023-01-30T02:20:42.652Z,2.98
2023-01-30T02:26:02.705Z,2.99
2023-01-30T02:31:25.146Z,3.00
2023-01-30T02:36:39.410Z,3.00
2023-01-30T02:41:51.028Z,2.98
2023-01-30T02:46:59.963Z,2.98
2023-01-30T02:52:08.419Z,2.95
2023-01-30T02:57:22.869Z,2.97
2023-01-30T03:02:43.168Z,2.96
2023-01-30T03:07:52.600Z,2.97
2023-01-30T03:13:04.731Z,2.94
2023-01-30T03:18:12.138Z,2.95
2023-01-30T03:23:19.262Z,2.95
2023-01-30T03:28:26.443Z,2.94
2023-01-30T03:33:33.812Z,2.94
2023-01-30T03:38:40.941Z,2.92
2023-01-30T03:43:48.162Z,2.92
2023-01-30T03:48:55.241Z,2.93
2023-01-30T03:54:02.437Z,2.93
2023-01-30T03:59:09.722Z,2.94
2023-01-30T04:04:17.059Z,2.92
2023-01-30T04:09:24.341Z,2.92
2023-01-30T04:14:31.414Z,2.90
2023-01-30T04:19:38.301Z,2.90
2023-01-30T04:24:45.374Z,2.91
2023-01-30T04:29:52.764Z,2.91
2023-01-30T04:34:59.823Z,2.91
2023-01-30T04:40:07.716Z,2.90
2023-01-30T04:45:15.036Z,2.92
2023-01-30T04:50:22.042Z,2.92
2023-01-30T04:55:29.002Z,2.92
2023-01-30T05:00:35.943Z,2.90
2023-01-30T05:05:43.181Z,2.89
2023-01-30T05:10:50.689Z,2.89
2023-01-30T05:15:58.032Z,2.89
2023-01-30T05:21:11.891Z,2.90
2023-01-30T05:26:18.884Z,2.88
2023-01-30T05:31:26.384Z,2.88
2023-01-30T05:36:33.509Z,2.90
2023-01-30T05:41:40.640Z,2.89
2023-01-30T05:46:47.720Z,2.89
2023-01-30T05:51:55.074Z,2.89
2023-01-30T05:57:02.481Z,2.89
2023-01-30T06:02:11.142Z,2.88
2023-01-30T06:07:18.932Z,2.89
2023-01-30T06:12:26.093Z,2.90
2023-01-30T06:17:33.501Z,2.88
2023-01-30T06:22:41.085Z,2.87
2023-01-30T06:27:49.055Z,2.86
2023-01-30T06:32:56.309Z,2.85
2023-01-30T06:38:03.518Z,2.85
2023-01-30T06:43:10.626Z,2.88
2023-01-30T06:48:17.852Z,2.87
2023-01-30T06:53:31.001Z,2.87
2023-01-30T06:58:38.608Z,2.87
2023-01-30T07:03:45.946Z,2.86
2023-01-30T07:08:53.426Z,2.85
2023-01-30T07:14:01.414Z,2.85
2023-01-30T07:19:09.024Z,2.84
2023-01-30T07:24:16.450Z,2.85
2023-01-30T07:29:23.971Z,2.85
2023-01-30T07:34:31.484Z,2.84
2023-01-30T07:39:38.903Z,2.83
2023-01-30T07:44:46.042Z,2.85
2023-01-30T07:49:53.436Z,2.84
2023-01-30T07:55:01.662Z,2.83
2023-01-30T08:00:11.284Z,2.84
2023-01-30T08:05:18.872Z,2.86
2023-01-30T08:10:26.352Z,2.84
2023-01-30T08:15:33.917Z,2.84
2023-01-30T08:20:40.892Z,2.84
2023-01-30T08:25:48.321Z,2.83
2023-01-30T08:30:56.092Z,2.83
2023-01-30T08:36:03.250Z,2.84
2023-01-30T08:41:10.682Z,2.84
2023-01-30T08:46:18.389Z,2.85
2023-01-30T08:51:25.571Z,2.83
2023-01-30T08:56:33.131Z,2.83
2023-01-30T09:01:40.373Z,2.85
2023-01-30T09:06:47.744Z,2.86
2023-01-30T09:11:55.174Z,2.84
2023-01-30T09:17:02.644Z,2.83
2023-01-30T09:22:10.096Z,2.83
2023-01-30T09:27:17.662Z,2.83
2023-01-30T09:32:25.023Z,2.84
2023-01-30T09:37:32.397Z,2.83
2023-01-30T09:42:54.755Z,2.84
2023-01-30T09:48:05.358Z,2.85
2023-01-30T09:53:17.805Z,2.86
2023-01-30T09:58:25.892Z,2.85
2023-01-30T10:03:35.852Z,2.85
2023-01-30T10:08:48.100Z,2.84
2023-01-30T10:14:08.335Z,2.85
2023-01-30T10:19:34.824Z,2.86
2023-01-30T10:24:48.262Z,2.89
2023-01-30T10:29:57.515Z,2.84
2023-01-30T10:35:07.325Z,2.83
2023-01-30T10:40:16.766Z,2.83
2023-01-30T10:45:28.441Z,2.83
2023-01-30T10:50:46.043Z,2.84
2023-01-30T10:55:57.440Z,2.86
2023-01-30T11:01:08.034Z,2.87
2023-01-30T11:06:17.480Z,2.84
2023-01-30T11:11:29.472Z,2.82
2023-01-30T11:16:43.774Z,2.84
2023-01-30T11:21:52.233Z,2.83
2023-01-30T11:27:11.299Z,2.82
2023-01-30T11:32:24.141Z,2.84
2023-01-30T11:37:33.344Z,2.83
2023-01-30T11:42:46.204Z,2.83
2023-01-30T11:47:58.815Z,2.85
2023-01-30T11:53:07.871Z,2.84
2023-01-30T11:58:15.703Z,2.82
2023-01-30T12:03:25.992Z,2.83
2023-01-30T12:08:42.722Z,2.84
2023-01-30T12:13:51.231Z,2.84
2023-01-30T12:19:02.548Z,2.83
2023-01-30T12:24:18.988Z,2.83
2023-01-30T12:29:31.502Z,2.82
2023-01-30T12:34:38.747Z,2.84
2023-01-30T12:39:52.204Z,2.84
2023-01-30T12:45:04.507Z,2.85
2023-01-30T12:50:27.842Z,2.85
2023-01-30T12:55:42.545Z,2.86
2023-01-30T13:00:59.892Z,2.84
2023-01-30T13:06:13.542Z,2.85
2023-01-30T13:11:29.571Z,2.86
2023-01-30T13:16:38.721Z,2.84
2023-01-30T13:21:49.309Z,2.82
2023-01-30T13:27:00.052Z,2.82
2023-01-30T13:32:08.671Z,2.82
2023-01-30T13:37:16.456Z,2.81
2023-01-30T13:42:32.725Z,2.82
2023-01-30T13:47:45.854Z,2.84
2023-01-30T13:52:55.104Z,2.83
2023-01-30T13:58:06.395Z,2.82
2023-01-30T14:03:31.872Z,2.84
2023-01-30T14:08:42.040Z,2.84
2023-01-30T14:13:53.630Z,2.82
2023-01-30T14:19:00.652Z,2.83
2023-01-30T14:24:08.611Z,2.83
2023-01-30T14:29:36.222Z,2.82
2023-01-30T14:34:44.023Z,2.86
2023-01-30T14:39:54.430Z,2.85
2023-01-30T14:45:02.634Z,2.82
2023-01-30T14:50:20.220Z,2.81
2023-01-30T14:55:29.980Z,2.81
2023-01-30T15:00:39.186Z,2.82
2023-01-30T15:05:47.488Z,2.82
2023-01-30T15:11:12.272Z,2.82
2023-01-30T15:16:39.934Z,2.82
2023-01-30T15:21:54.692Z,2.83
2023-01-30T15:27:09.092Z,2.82
2023-01-30T15:32:20.024Z,2.81
2023-01-30T15:37:38.100Z,2.81
2023-01-30T15:42:47.422Z,2.81
2023-01-30T15:48:14.292Z,2.80
2023-01-30T15:53:24.353Z,2.81
2023-01-30T15:58:33.151Z,2.81
2023-01-30T16:03:43.037Z,2.82
2023-01-30T16:08:57.431Z,2.81
2023-01-30T16:14:04.844Z,2.81
2023-01-30T16:19:18.925Z,2.80
2023-01-30T16:24:27.704Z,2.80
2023-01-30T16:29:35.585Z,2.80
2023-01-30T16:34:42.693Z,2.80
2023-01-30T16:40:00.596Z,2.80
2023-01-30T16:45:33.320Z,2.81
2023-01-30T16:50:40.353Z,2.83
2023-01-30T16:55:56.571Z,2.81
2023-01-30T17:01:05.028Z,2.80
2023-01-30T17:06:22.534Z,2.80
2023-01-30T17:11:34.948Z,2.81
2023-01-30T17:16:43.466Z,2.80
2023-01-30T17:21:51.752Z,2.80
2023-01-30T17:27:00.614Z,2.79
2023-01-30T17:32:12.340Z,2.79
2023-01-30T17:37:21.693Z,2.79
2023-01-30T17:42:29.082Z,2.79
2023-01-30T17:47:36.808Z,2.78
2023-01-30T17:52:44.022Z,2.78
2023-01-30T17:57:51.481Z,2.78
2023-01-30T18:02:58.875Z,2.78
2023-01-30T18:08:06.274Z,2.78
2023-01-30T18:13:13.601Z,2.78
2023-01-30T18:18:20.813Z,2.78
2023-01-30T18:23:28.313Z,2.79
2023-01-30T18:28:35.910Z,2.78
2023-01-30T18:33:45.121Z,2.78
2023-01-30T18:38:53.942Z,2.79
2023-01-30T18:44:02.357Z,2.79
2023-01-30T18:49:10.141Z,2.78
2023-01-30T18:54:17.561Z,2.77
2023-01-30T18:59:25.402Z,2.78
2023-01-30T19:04:32.972Z,2.78
2023-01-30T19:09:40.523Z,2.77
2023-01-30T19:14:47.953Z,2.77
2023-01-30T19:19:55.103Z,2.77
2023-01-30T19:25:02.790Z,2.77
2023-01-30T19:30:11.164Z,2.77
2023-01-30T19:35:19.204Z,2.77
2023-01-30T19:40:26.561Z,2.77
2023-01-30T19:45:34.302Z,2.77
2023-01-30T19:50:41.797Z,2.77
2023-01-30T19:55:52.881Z,2.77
2023-01-30T20:01:08.043Z,2.78
2023-01-30T20:06:16.425Z,2.79
2023-01-30T20:11:23.921Z,2.77
2023-01-30T20:16:31.781Z,2.77
2023-01-30T20:21:39.745Z,2.76
2023-01-30T20:26:48.638Z,2.77
2023-01-30T20:31:56.511Z,2.76
2023-01-30T20:37:04.031Z,2.76
2023-01-30T20:42:11.142Z,2.75
2023-01-30T20:47:18.332Z,2.75
2023-01-30T20:52:25.369Z,2.75
2023-01-30T20:57:32.392Z,2.75
2023-01-30T21:02:39.395Z,2.74
2023-01-30T21:07:46.483Z,2.75
2023-01-30T21:19:47.246Z,2.75
2023-01-30T21:31:28.619Z,2.74
2023-01-30T21:36:35.759Z,2.74
2023-01-30T21:42:00.384Z,2.75
2023-01-30T21:47:08.136Z,2.77
2023-01-30T21:52:15.357Z,2.76
2023-01-30T21:57:22.313Z,2.75
2023-01-30T22:02:29.424Z,2.76
2023-01-30T22:07:36.787Z,2.76
2023-01-30T22:12:44.029Z,2.75
2023-01-30T22:17:51.207Z,2.75
2023-01-30T22:22:58.572Z,2.75
2023-01-30T22:28:06.065Z,2.75
2023-01-30T22:33:13.215Z,2.75
2023-01-30T22:38:22.713Z,2.75
2023-01-30T22:43:29.915Z,2.76
2023-01-30T22:48:37.432Z,2.75
2023-01-30T22:53:45.837Z,2.76
2023-01-30T22:58:53.414Z,2.76
2023-01-30T23:04:02.036Z,2.75
2023-01-30T23:09:09.526Z,2.75
2023-01-30T23:14:18.451Z,2.76
2023-01-30T23:19:25.702Z,2.76
2023-01-30T23:24:32.772Z,2.74
2023-01-30T23:29:40.229Z,2.73
2023-01-30T23:34:47.569Z,2.73
2023-01-30T23:39:55.003Z,2.73
2023-01-30T23:45:02.572Z,2.74
2023-01-30T23:50:10.369Z,2.74
2023-01-30T23:55:17.913Z,2.75
